createdAt,value
2019-06-01T00:01:24.761Z,61.59
2019-06-01T00:03:57.754Z,61.86
2019-06-01T00:06:30.207Z,61.09
2019-06-01T00:09:02.580Z,60.66
2019-06-01T00:11:36.503Z,60.73
2019-06-01T00:14:10.394Z,60.83
2019-06-01T00:16:44.090Z,61.27
2019-06-01T00:19:16.468Z,61.62
2019-06-01T00:21:49.448Z,61.70
2019-06-01T00:24:21.834Z,61.62
2019-06-01T00:26:54.209Z,61.73
2019-06-01T00:29:26.572Z,61.63
2019-06-01T00:31:58.951Z,61.68
2019-06-01T00:34:31.522Z,61.43
2019-06-01T00:37:04.299Z,61.00
2019-06-01T00:39:37.800Z,61.41
2019-06-01T00:42:10.372Z,61.12
2019-06-01T00:44:44.316Z,60.54
2019-06-01T00:47:16.553Z,59.37
2019-06-01T00:49:48.904Z,61.15
2019-06-01T00:52:21.093Z,61.61
2019-06-01T00:54:53.774Z,61.62
2019-06-01T00:57:26.043Z,60.77
2019-06-01T00:59:58.517Z,61.06
2019-06-01T01:02:31.193Z,60.55
2019-06-01T01:05:17.943Z,62.14
2019-06-01T01:07:51.119Z,62.21
2019-06-01T01:10:25.102Z,63.01
2019-06-01T01:13:11.607Z,63.54
2019-06-01T01:15:45.235Z,63.37
2019-06-01T01:18:17.576Z,63.63
2019-06-01T01:20:51.955Z,64.25
2019-06-01T01:23:24.369Z,65.11
2019-06-01T01:25:57.052Z,65.90
2019-06-01T01:28:29.523Z,65.70
2019-06-01T01:31:12.871Z,65.90
2019-06-01T01:33:35.803Z,65.73
2019-06-01T01:36:08.178Z,66.01
2019-06-01T01:38:40.445Z,66.55
2019-06-01T01:41:13.126Z,67.20
2019-06-01T01:43:45.764Z,67.69
2019-06-01T01:46:18.274Z,67.57
2019-06-01T01:48:50.449Z,67.57
2019-06-01T01:51:22.820Z,67.81
2019-06-01T01:53:56.592Z,68.38
2019-06-01T01:56:28.991Z,68.62
2019-06-01T01:59:04.273Z,68.97
2019-06-01T02:01:36.503Z,69.37
2019-06-01T02:04:09.076Z,69.92
2019-06-01T02:06:41.249Z,70.06
2019-06-01T02:09:13.624Z,70.51
2019-06-01T02:11:46.101Z,70.17
2019-06-01T02:14:19.088Z,71.05
2019-06-01T02:16:51.912Z,71.17
2019-06-01T02:19:24.333Z,71.12
2019-06-01T02:21:58.507Z,71.17
2019-06-01T02:24:30.840Z,71.78
2019-06-01T02:27:03.353Z,72.87
2019-06-01T02:29:35.664Z,72.56
2019-06-01T02:32:08.036Z,73.62
2019-06-01T02:34:40.718Z,73.77
2019-06-01T02:37:13.085Z,74.04
2019-06-01T02:39:45.465Z,73.74
2019-06-01T02:42:18.035Z,74.80
2019-06-01T02:44:50.102Z,74.02
2019-06-01T02:47:22.270Z,74.41
2019-06-01T02:49:55.617Z,74.43
2019-06-01T02:52:28.444Z,74.78
2019-06-01T02:55:02.240Z,74.63
2019-06-01T02:57:34.927Z,74.42
2019-06-01T03:00:08.287Z,73.82
2019-06-01T03:02:41.565Z,73.61
2019-06-01T03:05:14.605Z,73.80
2019-06-01T03:07:49.537Z,71.66
2019-06-01T03:10:22.113Z,71.55
2019-06-01T03:12:58.153Z,71.31
2019-06-01T03:15:32.692Z,69.36
2019-06-01T03:18:05.701Z,67.83
2019-06-01T03:20:40.001Z,66.39
2019-06-01T03:23:15.544Z,64.61
2019-06-01T03:25:51.444Z,61.51
2019-06-01T03:28:26.950Z,61.41
2019-06-01T03:31:01.105Z,62.96
2019-06-01T03:33:34.385Z,62.01
2019-06-01T03:36:09.074Z,61.68
2019-06-01T03:38:41.645Z,61.26
2019-06-01T03:41:13.924Z,61.40
2019-06-01T03:43:47.393Z,61.87
2019-06-01T03:46:19.998Z,62.23
2019-06-01T03:48:52.999Z,63.11
2019-06-01T03:51:25.767Z,65.12
2019-06-01T03:53:58.658Z,64.07
2019-06-01T03:56:30.814Z,64.71
2019-06-01T03:59:03.401Z,64.83
2019-06-01T04:01:37.238Z,65.49
2019-06-01T04:04:09.890Z,65.60
2019-06-01T04:06:42.453Z,65.20
2019-06-01T04:09:14.927Z,65.30
2019-06-01T04:11:47.300Z,64.46
2019-06-01T04:14:19.672Z,64.31
2019-06-01T04:16:52.253Z,63.91
2019-06-01T04:19:24.728Z,64.00
2019-06-01T04:21:57.607Z,63.56
2019-06-01T04:24:30.042Z,63.96
2019-06-01T04:27:04.047Z,64.05
2019-06-01T04:29:36.387Z,62.45
2019-06-01T04:32:08.956Z,62.05
2019-06-01T04:34:41.216Z,61.97
2019-06-01T04:37:13.893Z,62.09
2019-06-01T04:39:46.566Z,62.81
2019-06-01T04:42:19.860Z,62.59
2019-06-01T04:44:52.344Z,62.14
2019-06-01T04:47:25.010Z,60.76
2019-06-01T04:49:57.386Z,60.92
2019-06-01T04:52:29.962Z,60.74
2019-06-01T04:55:02.336Z,61.20
2019-06-01T04:57:34.714Z,60.25
2019-06-01T05:00:24.210Z,60.50
2019-06-01T05:02:45.186Z,60.62
2019-06-01T05:05:17.658Z,60.39
2019-06-01T05:07:50.030Z,59.90
2019-06-01T05:10:22.506Z,60.20
2019-06-01T05:12:54.776Z,59.87
2019-06-01T05:15:27.354Z,58.18
2019-06-01T05:17:59.823Z,59.03
2019-06-01T05:20:31.891Z,59.84
2019-06-01T05:23:04.779Z,58.73
2019-06-01T05:25:37.040Z,58.68
2019-06-01T05:28:11.119Z,58.40
2019-06-01T05:30:43.631Z,57.76
2019-06-01T05:33:30.937Z,57.16
2019-06-01T05:35:50.316Z,57.26
2019-06-01T05:38:22.895Z,56.33
2019-06-01T05:40:55.368Z,56.23
2019-06-01T05:43:27.949Z,56.81
2019-06-01T05:46:00.211Z,56.92
2019-06-01T05:48:32.691Z,55.90
2019-06-01T05:51:05.166Z,55.85
2019-06-01T05:53:37.991Z,55.78
2019-06-01T05:56:10.529Z,55.72
2019-06-01T05:58:42.995Z,54.93
2019-06-01T06:01:16.451Z,54.03
2019-06-01T06:03:49.257Z,54.27
2019-06-01T06:06:22.060Z,54.73
2019-06-01T06:08:54.428Z,55.02
2019-06-01T06:11:27.007Z,53.84
2019-06-01T06:13:59.588Z,54.79
2019-06-01T06:16:32.053Z,54.65
2019-06-01T06:19:04.638Z,55.15
2019-06-01T06:21:36.901Z,54.16
2019-06-01T06:24:09.066Z,53.72
2019-06-01T06:26:41.443Z,52.83
2019-06-01T06:29:14.698Z,52.63
2019-06-01T06:31:47.941Z,53.46
2019-06-01T06:34:21.576Z,53.03
2019-06-01T06:36:54.108Z,53.52
2019-06-01T06:39:26.581Z,51.61
2019-06-01T06:41:59.262Z,51.31
2019-06-01T06:44:31.548Z,52.03
2019-06-01T06:47:04.104Z,50.43
2019-06-01T06:49:36.581Z,50.91
2019-06-01T06:52:09.167Z,51.49
2019-06-01T06:54:41.839Z,51.13
2019-06-01T06:57:14.212Z,49.82
2019-06-01T06:59:46.788Z,49.40
2019-06-01T07:02:20.785Z,49.15
2019-06-01T07:04:53.072Z,47.79
2019-06-01T07:07:25.786Z,48.70
2019-06-01T07:09:58.254Z,47.47
2019-06-01T07:12:31.560Z,46.48
2019-06-01T07:15:04.600Z,45.59
2019-06-01T07:17:36.777Z,46.00
2019-06-01T07:20:09.761Z,43.15
2019-06-01T07:22:42.440Z,44.54
2019-06-01T07:25:14.827Z,42.60
2019-06-01T07:27:47.398Z,42.81
2019-06-01T07:30:20.145Z,44.02
2019-06-01T07:32:52.745Z,43.92
2019-06-01T07:35:26.364Z,45.41
2019-06-01T07:37:58.812Z,46.68
2019-06-01T07:40:31.387Z,44.51
2019-06-01T07:43:03.860Z,44.69
2019-06-01T07:45:36.347Z,43.83
2019-06-01T07:48:08.745Z,43.84
2019-06-01T07:50:40.972Z,43.47
2019-06-01T07:53:13.532Z,41.52
2019-06-01T07:55:45.716Z,40.57
2019-06-01T07:58:18.171Z,40.94
2019-06-01T08:00:50.676Z,41.03
2019-06-01T08:03:26.615Z,41.93
2019-06-01T08:05:57.768Z,42.76
2019-06-01T08:08:31.407Z,41.98
2019-06-01T08:11:03.947Z,42.83
2019-06-01T08:13:36.061Z,42.55
2019-06-01T08:16:08.381Z,43.47
2019-06-01T08:18:40.649Z,43.16
2019-06-01T08:21:13.126Z,42.77
2019-06-01T08:23:45.392Z,43.04
2019-06-01T08:26:19.986Z,42.14
2019-06-01T08:28:51.884Z,40.97
2019-06-01T08:31:24.570Z,40.95
2019-06-01T08:33:57.028Z,39.57
2019-06-01T08:36:29.588Z,38.95
2019-06-01T08:39:02.091Z,40.86
2019-06-01T08:41:35.889Z,39.11
2019-06-01T08:44:08.578Z,39.56
2019-06-01T08:46:41.040Z,38.95
2019-06-01T08:49:13.517Z,38.83
2019-06-01T08:51:45.833Z,38.80
2019-06-01T08:54:18.463Z,38.11
2019-06-01T08:56:50.952Z,36.28
2019-06-01T08:59:24.227Z,36.09
2019-06-01T09:01:56.854Z,36.50
2019-06-01T09:04:30.687Z,36.02
2019-06-01T09:07:02.880Z,36.58
2019-06-01T09:09:35.373Z,37.53
2019-06-01T09:12:07.832Z,37.14
2019-06-01T09:14:40.303Z,36.71
2019-06-01T09:17:12.684Z,37.29
2019-06-01T09:19:45.047Z,37.47
2019-06-01T09:22:17.543Z,36.58
2019-06-01T09:24:53.288Z,37.07
2019-06-01T09:27:24.008Z,36.97
2019-06-01T09:29:56.483Z,36.28
2019-06-01T09:32:30.060Z,36.75
2019-06-01T09:35:02.277Z,36.39
2019-06-01T09:37:35.050Z,36.01
2019-06-01T09:40:08.601Z,35.53
2019-06-01T09:42:40.804Z,36.02
2019-06-01T09:45:13.388Z,36.46
2019-06-01T09:47:45.760Z,36.48
2019-06-01T09:50:19.261Z,36.47
2019-06-01T09:52:51.825Z,36.71
2019-06-01T09:55:24.098Z,37.91
2019-06-01T09:57:56.772Z,38.15
2019-06-01T10:00:30.338Z,37.63
2019-06-01T10:03:02.955Z,37.80
2019-06-01T10:05:36.194Z,38.02
2019-06-01T10:08:08.723Z,38.48
2019-06-01T10:10:42.304Z,37.38
2019-06-01T10:13:14.496Z,38.12
2019-06-01T10:15:46.659Z,37.73
2019-06-01T10:18:19.229Z,37.80
2019-06-01T10:21:07.884Z,37.82
2019-06-01T10:23:40.361Z,38.34
2019-06-01T10:26:12.805Z,38.35
2019-06-01T10:28:45.414Z,37.84
2019-06-01T10:31:17.784Z,37.81
2019-06-01T10:33:51.677Z,37.88
2019-06-01T10:36:24.674Z,38.47
2019-06-01T10:38:57.965Z,37.96
2019-06-01T10:41:31.234Z,38.19
2019-06-01T10:44:03.637Z,37.92
2019-06-01T10:46:36.119Z,38.09
2019-06-01T10:49:08.480Z,38.31
2019-06-01T10:51:42.273Z,38.04
2019-06-01T10:54:16.099Z,38.21
2019-06-01T10:56:48.363Z,37.28
2019-06-01T10:59:20.936Z,36.99
2019-06-01T11:01:53.717Z,36.77
2019-06-01T11:04:25.995Z,36.94
2019-06-01T11:06:58.462Z,36.31
2019-06-01T11:09:30.859Z,36.74
2019-06-01T11:12:03.215Z,37.06
2019-06-01T11:14:35.586Z,36.49
2019-06-01T11:17:08.779Z,36.33
2019-06-01T11:19:42.069Z,36.12
2019-06-01T11:22:14.737Z,36.07
2019-06-01T11:24:47.006Z,36.14
2019-06-01T11:27:19.689Z,35.69
2019-06-01T11:29:53.184Z,35.18
2019-06-01T11:32:25.873Z,35.76
2019-06-01T11:34:58.239Z,34.82
2019-06-01T11:37:30.725Z,34.98
2019-06-01T11:40:04.107Z,34.50
2019-06-01T11:42:36.993Z,34.55
2019-06-01T11:45:09.982Z,34.37
2019-06-01T11:47:42.921Z,34.91
2019-06-01T11:50:16.262Z,35.00
2019-06-01T11:52:48.737Z,35.24
2019-06-01T11:55:21.324Z,34.70
2019-06-01T11:57:53.990Z,34.53
2019-06-01T12:00:26.671Z,34.26
2019-06-01T12:02:59.239Z,34.74
2019-06-01T12:05:31.616Z,34.13
2019-06-01T12:08:04.094Z,33.79
2019-06-01T12:10:36.720Z,33.67
2019-06-01T12:13:08.938Z,33.32
2019-06-01T12:15:42.278Z,33.14
2019-06-01T12:18:14.704Z,33.28
2019-06-01T12:20:48.006Z,33.15
2019-06-01T12:23:20.473Z,33.76
2019-06-01T12:25:52.845Z,32.16
2019-06-01T12:28:25.223Z,32.57
2019-06-01T12:30:57.593Z,32.15
2019-06-01T12:33:29.968Z,31.78
2019-06-01T12:36:02.337Z,31.82
2019-06-01T12:38:37.850Z,32.37
2019-06-01T12:41:10.145Z,32.07
2019-06-01T12:43:45.599Z,32.39
2019-06-01T12:46:18.065Z,31.81
2019-06-01T12:48:50.541Z,32.04
2019-06-01T12:51:23.018Z,31.91
2019-06-01T12:53:55.703Z,31.66
2019-06-01T12:56:28.064Z,31.67
2019-06-01T12:59:00.761Z,31.78
2019-06-01T13:01:33.233Z,31.60
2019-06-01T13:04:07.537Z,32.32
2019-06-01T13:06:40.716Z,32.31
2019-06-01T13:09:13.197Z,32.07
2019-06-01T13:11:45.677Z,32.03
2019-06-01T13:14:18.156Z,31.47
2019-06-01T13:17:06.270Z,31.56
2019-06-01T13:19:24.428Z,32.05
2019-06-01T13:21:56.801Z,31.55
2019-06-01T13:24:29.284Z,31.90
2019-06-01T13:27:01.569Z,32.07
2019-06-01T13:29:34.029Z,31.39
2019-06-01T13:32:06.495Z,31.88
2019-06-01T13:34:38.984Z,32.16
2019-06-01T13:37:11.648Z,32.37
2019-06-01T13:39:45.165Z,32.12
2019-06-01T13:42:18.441Z,32.43
2019-06-01T13:44:51.630Z,31.93
2019-06-01T13:47:24.001Z,31.37
2019-06-01T13:49:57.400Z,31.60
2019-06-01T13:52:29.771Z,31.49
2019-06-01T13:55:02.625Z,31.61
2019-06-01T13:57:35.128Z,31.69
2019-06-01T14:00:08.725Z,31.92
2019-06-01T14:02:41.313Z,32.02
2019-06-01T14:05:14.039Z,31.67
2019-06-01T14:07:47.563Z,31.75
2019-06-01T14:10:21.185Z,31.48
2019-06-01T14:12:53.593Z,31.15
2019-06-01T14:15:26.245Z,31.02
2019-06-01T14:17:58.721Z,31.03
2019-06-01T14:20:31.186Z,31.43
2019-06-01T14:23:03.773Z,30.86
2019-06-01T14:25:36.400Z,30.82
2019-06-01T14:28:08.948Z,31.47
2019-06-01T14:30:41.288Z,30.68
2019-06-01T14:33:13.869Z,30.92
2019-06-01T14:35:46.645Z,30.91
2019-06-01T14:38:18.914Z,31.42
2019-06-01T14:40:52.380Z,31.14
2019-06-01T14:43:25.198Z,31.47
2019-06-01T14:45:58.289Z,31.98
2019-06-01T14:48:30.759Z,31.78
2019-06-01T14:51:03.232Z,31.43
2019-06-01T14:53:35.809Z,31.43
2019-06-01T14:56:08.216Z,35.79
2019-06-01T15:16:15.629Z,45.41
2019-06-01T15:18:55.950Z,46.13
2019-06-01T15:41:38.001Z,47.20
2019-06-01T16:14:38.606Z,49.11
2019-06-01T16:17:11.078Z,49.48
2019-06-01T16:19:43.659Z,49.50
2019-06-01T16:22:16.229Z,49.98
2019-06-01T16:24:48.811Z,50.32
2019-06-01T16:27:21.387Z,50.61
2019-06-01T16:29:54.594Z,51.03
2019-06-01T16:32:27.055Z,51.34
2019-06-01T16:35:01.021Z,51.59
2019-06-01T16:37:33.840Z,51.88
2019-06-01T16:40:10.938Z,51.90
2019-06-01T16:42:43.810Z,52.05
2019-06-01T16:45:16.782Z,52.46
2019-06-01T16:47:50.096Z,52.71
2019-06-01T16:50:22.974Z,53.03
2019-06-01T16:52:55.865Z,53.32
2019-06-01T16:55:31.395Z,53.66
2019-06-01T16:58:03.599Z,53.82
2019-06-01T17:00:36.350Z,54.14
2019-06-01T17:03:11.312Z,54.38
2019-06-01T17:05:43.551Z,54.66
2019-06-01T17:08:15.924Z,54.84
2019-06-01T17:10:48.708Z,55.34
2019-06-01T17:13:20.974Z,55.46
2019-06-01T17:15:53.244Z,55.66
2019-06-01T17:18:25.616Z,55.79
2019-06-01T17:20:59.194Z,55.88
2019-06-01T17:23:33.209Z,56.23
2019-06-01T17:26:07.589Z,56.37
2019-06-01T17:28:40.638Z,56.56
2019-06-01T17:31:13.323Z,56.75
2019-06-01T17:33:45.890Z,56.72
2019-06-01T17:36:18.570Z,56.85
2019-06-01T17:38:50.942Z,57.07
2019-06-01T17:41:23.516Z,57.49
2019-06-01T17:43:55.890Z,57.76
2019-06-01T17:46:28.156Z,57.83
2019-06-01T17:49:00.528Z,57.94
2019-06-01T17:51:33.009Z,58.25
2019-06-01T17:54:07.997Z,58.17
2019-06-01T17:56:39.896Z,58.18
2019-06-01T17:59:12.478Z,57.94
2019-06-01T18:01:45.343Z,58.14
2019-06-01T18:04:17.738Z,58.09
2019-06-01T18:06:50.203Z,57.51
2019-06-01T18:09:22.803Z,57.48
2019-06-01T18:11:55.653Z,57.57
2019-06-01T18:14:28.038Z,57.57
2019-06-01T18:17:00.621Z,57.23
2019-06-01T18:19:33.090Z,57.03
2019-06-01T18:22:06.723Z,56.99
2019-06-01T18:24:39.168Z,56.87
2019-06-01T18:27:12.665Z,56.41
2019-06-01T18:29:48.733Z,56.46
2019-06-01T18:32:19.151Z,56.58
2019-06-01T18:34:51.724Z,56.63
2019-06-01T18:37:26.073Z,56.59
2019-06-01T18:39:58.723Z,56.83
2019-06-01T18:42:31.480Z,57.00
2019-06-01T18:45:06.060Z,57.31
2019-06-01T18:47:38.917Z,57.34
2019-06-01T18:50:16.981Z,57.59
2019-06-01T18:52:47.139Z,57.46
2019-06-01T18:55:19.826Z,57.50
2019-06-01T18:57:55.668Z,57.53
2019-06-01T19:00:28.139Z,57.66
2019-06-01T19:03:00.558Z,58.05
2019-06-01T19:05:32.990Z,58.80
2019-06-01T19:08:05.670Z,59.26
2019-06-01T19:10:38.551Z,59.66
2019-06-01T19:13:11.705Z,59.67
2019-06-01T19:15:44.314Z,58.99
2019-06-01T19:18:17.230Z,59.27
2019-06-01T19:20:49.677Z,58.90
2019-06-01T19:23:23.038Z,58.61
2019-06-01T19:25:55.559Z,58.50
2019-06-01T19:28:28.022Z,58.24
2019-06-01T19:31:00.409Z,58.47
2019-06-01T19:33:33.172Z,58.39
2019-06-01T19:36:06.925Z,57.89
2019-06-01T19:38:40.869Z,57.48
2019-06-01T19:41:13.485Z,57.22
2019-06-01T19:43:46.042Z,57.26
2019-06-01T19:46:18.723Z,57.26
2019-06-01T19:48:51.078Z,57.49
2019-06-01T19:51:23.562Z,57.72
2019-06-01T19:53:57.507Z,57.98
2019-06-01T19:56:29.756Z,57.56
2019-06-01T19:59:02.221Z,56.89
2019-06-01T20:01:35.637Z,56.81
2019-06-01T20:04:08.294Z,57.44
2019-06-01T20:06:40.942Z,57.94
2019-06-01T20:09:13.245Z,57.62
2019-06-01T20:12:01.011Z,57.78
2019-06-01T20:14:19.420Z,58.39
2019-06-01T20:16:53.126Z,58.19
2019-06-01T20:19:26.829Z,59.47
2019-06-01T20:21:59.253Z,59.18
2019-06-01T20:24:31.851Z,59.51
2019-06-01T20:27:04.570Z,59.79
2019-06-01T20:29:36.932Z,60.45
2019-06-01T20:32:09.243Z,60.87
2019-06-01T20:34:41.622Z,61.90
2019-06-01T20:37:14.351Z,63.28
2019-06-01T20:39:46.826Z,65.84
2019-06-01T20:42:26.428Z,66.58
2019-06-01T20:44:53.408Z,67.37
2019-06-01T20:47:25.884Z,70.12
2019-06-01T20:49:58.356Z,70.20
2019-06-01T20:52:30.938Z,70.04
2019-06-01T20:55:04.953Z,70.52
2019-06-01T20:57:37.936Z,71.94
2019-06-01T21:00:11.538Z,72.37
2019-06-01T21:02:46.161Z,73.81
2019-06-01T21:05:19.868Z,74.38
2019-06-01T21:07:56.716Z,75.85
2019-06-01T21:10:26.854Z,75.80
2019-06-01T21:12:59.233Z,76.07
2019-06-01T21:15:32.115Z,75.73
2019-06-01T21:18:04.993Z,75.85
2019-06-01T21:20:37.479Z,76.21
2019-06-01T21:23:10.045Z,75.94
2019-06-01T21:25:42.212Z,75.49
2019-06-01T21:28:16.377Z,76.60
2019-06-01T21:30:48.802Z,75.54
2019-06-01T21:33:24.912Z,75.63
2019-06-01T21:35:55.401Z,75.70
2019-06-01T21:38:27.977Z,75.71
2019-06-01T21:41:01.684Z,76.22
2019-06-01T21:43:35.528Z,75.90
2019-06-01T21:46:08.054Z,76.17
2019-06-01T21:48:40.318Z,75.83
2019-06-01T21:51:12.689Z,75.41
2019-06-01T21:53:46.589Z,75.43
2019-06-01T21:56:20.661Z,75.42
2019-06-01T21:58:52.778Z,74.52
2019-06-01T22:01:26.873Z,74.08
2019-06-01T22:03:59.774Z,73.64
2019-06-01T22:06:32.145Z,73.51
2019-06-01T22:09:06.472Z,73.06
2019-06-01T22:11:38.733Z,73.00
2019-06-01T22:14:11.208Z,72.73
2019-06-01T22:16:43.476Z,72.75
2019-06-01T22:19:16.056Z,73.01
2019-06-01T22:21:48.636Z,73.43
2019-06-01T22:24:21.711Z,73.57
2019-06-01T22:26:53.987Z,73.62
2019-06-01T22:29:26.510Z,73.84
2019-06-01T22:31:59.041Z,74.06
2019-06-01T22:34:31.515Z,74.17
2019-06-01T22:37:04.087Z,74.34
2019-06-01T22:39:36.368Z,74.62
2019-06-01T22:42:09.147Z,74.51
2019-06-01T22:44:41.720Z,74.13
2019-06-01T22:47:13.989Z,74.59
2019-06-01T22:49:46.464Z,74.90
2019-06-01T22:52:18.835Z,74.62
2019-06-01T22:54:51.831Z,74.62
2019-06-01T22:57:26.575Z,74.88
2019-06-01T22:59:58.925Z,75.04
2019-06-01T23:02:32.020Z,75.21
2019-06-01T23:05:05.183Z,75.02
2019-06-01T23:07:37.372Z,74.94
2019-06-01T23:10:09.943Z,74.71
2019-06-01T23:12:42.521Z,74.60
2019-06-01T23:15:14.895Z,74.13
2019-06-01T23:17:47.373Z,74.18
2019-06-01T23:20:19.945Z,74.26
2019-06-01T23:22:52.322Z,74.39
2019-06-01T23:25:24.587Z,74.49
2019-06-01T23:27:57.157Z,74.55
2019-06-01T23:30:30.284Z,74.47
2019-06-01T23:33:02.629Z,74.72
2019-06-01T23:35:35.099Z,75.01
2019-06-01T23:38:07.671Z,75.57
2019-06-01T23:40:40.966Z,75.53
2019-06-01T23:43:13.546Z,75.57
2019-06-01T23:45:45.711Z,75.87
2019-06-01T23:48:18.183Z,75.92
2019-06-01T23:50:50.659Z,75.97
2019-06-01T23:53:23.522Z,75.02
2019-06-01T23:55:55.914Z,75.38
2019-06-01T23:58:28.284Z,75.91
